Terminal Aerodrome Forecast
Issued by NWS

Home | Current Version | Previous Version | Text Only | Print | Product List | Glossary On
Versions: 1 2 3 4 5 6 7 8 9 10 11 12 13 14 15 16 17
144
FTUS43 KJKL 271802 AAA
TAFSME
TAF AMD
KSME 271802Z 2718/2818 17011G20KT P6SM BKN080
     FM280000 16006KT P6SM BKN070
     FM281000 16004KT P6SM VCSH BKN050
     FM281200 17005KT P6SM -SHRA OVC035 WS020/20035KT
     FM281500 18010G15KT P6SM -SHRA VCTS OVC015CB=

USA.gov is the U.S. government's official web portal to all federal, state and local government web resources and services.